sensor_id;sensor_type;location;lat;lon;timestamp;temperature;humidity
17728;DHT22;8984;49.268;12.302;2023-03-14T00:02:22;12.70;99.90
17728;DHT22;8984;49.268;12.302;2023-03-14T00:04:54;12.60;99.90
17728;DHT22;8984;49.268;12.302;2023-03-14T00:07:21;12.70;99.90
17728;DHT22;8984;49.268;12.302;2023-03-14T00:09:50;12.70;99.90
17728;DHT22;8984;49.268;12.302;2023-03-14T00:12:18;12.70;99.90
17728;DHT22;8984;49.268;12.302;2023-03-14T00:15:01;12.60;99.90
17728;DHT22;8984;49.268;12.302;2023-03-14T00:17:42;12.50;99.90
17728;DHT22;8984;49.268;12.302;2023-03-14T00:20:14;12.50;99.90
17728;DHT22;8984;49.268;12.302;2023-03-14T00:22:45;12.50;99.90
17728;DHT22;8984;49.268;12.302;2023-03-14T00:25:13;12.40;99.90
17728;DHT22;8984;49.268;12.302;2023-03-14T00:27:49;12.40;99.90
17728;DHT22;8984;49.268;12.302;2023-03-14T00:30:41;12.40;99.90
17728;DHT22;8984;49.268;12.302;2023-03-14T00:33:09;12.40;99.90
17728;DHT22;8984;49.268;12.302;2023-03-14T00:35:38;12.40;99.90
17728;DHT22;8984;49.268;12.302;2023-03-14T00:38:13;12.50;99.90
17728;DHT22;8984;49.268;12.302;2023-03-14T00:40:55;12.40;99.90
17728;DHT22;8984;49.268;12.302;2023-03-14T00:43:40;12.40;99.90
17728;DHT22;8984;49.268;12.302;2023-03-14T00:46:19;12.40;99.90
17728;DHT22;8984;49.268;12.302;2023-03-14T00:48:54;12.40;99.90
17728;DHT22;8984;49.268;12.302;2023-03-14T00:51:22;12.40;99.90
17728;DHT22;8984;49.268;12.302;2023-03-14T00:53:55;12.30;99.90
17728;DHT22;8984;49.268;12.302;2023-03-14T00:56:26;12.30;99.90
17728;DHT22;8984;49.268;12.302;2023-03-14T00:59:08;12.20;99.90
17728;DHT22;8984;49.268;12.302;2023-03-14T01:01:44;12.00;99.90
17728;DHT22;8984;49.268;12.302;2023-03-14T01:04:12;11.90;99.90
17728;DHT22;8984;49.268;12.302;2023-03-14T01:06:43;11.90;99.90
17728;DHT22;8984;49.268;12.302;2023-03-14T01:09:13;11.90;99.90
17728;DHT22;8984;49.268;12.302;2023-03-14T01:11:48;11.90;99.90
17728;DHT22;8984;49.268;12.302;2023-03-14T01:14:18;11.80;99.90
17728;DHT22;8984;49.268;12.302;2023-03-14T01:16:57;11.90;99.90
17728;DHT22;8984;49.268;12.302;2023-03-14T01:19:32;11.80;99.90
17728;DHT22;8984;49.268;12.302;2023-03-14T01:22:00;11.90;99.90
17728;DHT22;8984;49.268;12.302;2023-03-14T01:24:42;11.80;99.90
17728;DHT22;8984;49.268;12.302;2023-03-14T01:27:16;11.70;99.90
17728;DHT22;8984;49.268;12.302;2023-03-14T01:29:45;11.60;99.90
17728;DHT22;8984;49.268;12.302;2023-03-14T01:32:20;11.70;99.90
17728;DHT22;8984;49.268;12.302;2023-03-14T01:34:52;11.80;99.90
17728;DHT22;8984;49.268;12.302;2023-03-14T01:37:21;11.80;99.90
17728;DHT22;8984;49.268;12.302;2023-03-14T01:39:51;11.80;99.90
17728;DHT22;8984;49.268;12.302;2023-03-14T01:42:26;11.80;99.90
17728;DHT22;8984;49.268;12.302;2023-03-14T01:45:01;11.90;99.90
17728;DHT22;8984;49.268;12.302;2023-03-14T01:47:30;11.80;99.90
17728;DHT22;8984;49.268;12.302;2023-03-14T01:50:05;11.80;99.90
17728;DHT22;8984;49.268;12.302;2023-03-14T01:52:42;11.70;99.90
17728;DHT22;8984;49.268;12.302;2023-03-14T01:55:14;11.70;99.90
17728;DHT22;8984;49.268;12.302;2023-03-14T01:58:00;11.70;99.90
17728;DHT22;8984;49.268;12.302;2023-03-14T02:00:33;11.60;99.90
17728;DHT22;8984;49.268;12.302;2023-03-14T02:03:11;11.60;99.90
17728;DHT22;8984;49.268;12.302;2023-03-14T02:05:47;11.60;99.90
17728;DHT22;8984;49.268;12.302;2023-03-14T02:08:19;11.60;99.90
17728;DHT22;8984;49.268;12.302;2023-03-14T02:10:51;11.50;99.90
17728;DHT22;8984;49.268;12.302;2023-03-14T02:13:21;11.50;99.90
17728;DHT22;8984;49.268;12.302;2023-03-14T02:15:53;11.60;99.90
17728;DHT22;8984;49.268;12.302;2023-03-14T02:18:32;11.60;99.90
17728;DHT22;8984;49.268;12.302;2023-03-14T02:21:05;11.60;99.90
17728;DHT22;8984;49.268;12.302;2023-03-14T02:23:51;11.50;99.90
17728;DHT22;8984;49.268;12.302;2023-03-14T02:26:25;11.50;99.90
17728;DHT22;8984;49.268;12.302;2023-03-14T02:28:56;11.50;99.90
17728;DHT22;8984;49.268;12.302;2023-03-14T02:31:34;11.50;99.90
17728;DHT22;8984;49.268;12.302;2023-03-14T02:34:13;11.50;99.90
17728;DHT22;8984;49.268;12.302;2023-03-14T02:36:58;11.40;99.90
17728;DHT22;8984;49.268;12.302;2023-03-14T02:39:36;11.40;99.90
17728;DHT22;8984;49.268;12.302;2023-03-14T02:42:11;11.30;99.90
17728;DHT22;8984;49.268;12.302;2023-03-14T02:45:01;11.30;99.90
17728;DHT22;8984;49.268;12.302;2023-03-14T02:47:54;11.40;99.90
17728;DHT22;8984;49.268;12.302;2023-03-14T02:50:25;11.40;99.90
17728;DHT22;8984;49.268;12.302;2023-03-14T02:53:00;11.50;99.90
17728;DHT22;8984;49.268;12.302;2023-03-14T02:58:20;11.40;99.90
17728;DHT22;8984;49.268;12.302;2023-03-14T03:00:49;11.50;99.90
17728;DHT22;8984;49.268;12.302;2023-03-14T03:03:25;11.40;99.90
17728;DHT22;8984;49.268;12.302;2023-03-14T03:06:06;11.50;99.90
17728;DHT22;8984;49.268;12.302;2023-03-14T03:08:35;11.50;99.90
17728;DHT22;8984;49.268;12.302;2023-03-14T03:11:06;11.50;99.90
17728;DHT22;8984;49.268;12.302;2023-03-14T03:13:35;11.60;99.90
17728;DHT22;8984;49.268;12.302;2023-03-14T03:16:04;11.60;99.90
17728;DHT22;8984;49.268;12.302;2023-03-14T03:18:35;11.60;99.90
17728;DHT22;8984;49.268;12.302;2023-03-14T03:21:04;11.70;99.90
17728;DHT22;8984;49.268;12.302;2023-03-14T03:23:40;11.70;99.90
17728;DHT22;8984;49.268;12.302;2023-03-14T03:26:23;11.70;99.90
17728;DHT22;8984;49.268;12.302;2023-03-14T03:28:55;11.70;99.90
17728;DHT22;8984;49.268;12.302;2023-03-14T03:31:30;11.70;99.90
17728;DHT22;8984;49.268;12.302;2023-03-14T03:34:02;11.70;99.90
17728;DHT22;8984;49.268;12.302;2023-03-14T03:36:49;11.70;99.90
17728;DHT22;8984;49.268;12.302;2023-03-14T03:39:17;11.70;99.90
17728;DHT22;8984;49.268;12.302;2023-03-14T03:41:51;11.70;99.90
17728;DHT22;8984;49.268;12.302;2023-03-14T03:44:27;11.60;99.90
17728;DHT22;8984;49.268;12.302;2023-03-14T03:47:00;11.50;99.90
17728;DHT22;8984;49.268;12.302;2023-03-14T03:49:35;11.50;99.90
17728;DHT22;8984;49.268;12.302;2023-03-14T03:52:06;11.50;99.90
17728;DHT22;8984;49.268;12.302;2023-03-14T03:54:36;11.50;99.90
17728;DHT22;8984;49.268;12.302;2023-03-14T03:57:06;11.10;99.90
17728;DHT22;8984;49.268;12.302;2023-03-14T03:59:50;11.20;99.90
17728;DHT22;8984;49.268;12.302;2023-03-14T04:02:20;11.10;99.90
17728;DHT22;8984;49.268;12.302;2023-03-14T04:05:00;11.20;99.90
17728;DHT22;8984;49.268;12.302;2023-03-14T04:07:52;11.20;99.90
17728;DHT22;8984;49.268;12.302;2023-03-14T04:10:22;11.20;99.90
17728;DHT22;8984;49.268;12.302;2023-03-14T04:12:59;11.10;99.90
17728;DHT22;8984;49.268;12.302;2023-03-14T04:15:30;11.10;99.90
17728;DHT22;8984;49.268;12.302;2023-03-14T04:18:07;11.10;99.90
17728;DHT22;8984;49.268;12.302;2023-03-14T04:20:42;11.10;99.90
17728;DHT22;8984;49.268;12.302;2023-03-14T04:23:22;11.10;99.90
17728;DHT22;8984;49.268;12.302;2023-03-14T04:26:00;11.00;99.90
17728;DHT22;8984;49.268;12.302;2023-03-14T04:28:47;10.80;99.90
17728;DHT22;8984;49.268;12.302;2023-03-14T04:31:16;10.90;99.90
17728;DHT22;8984;49.268;12.302;2023-03-14T04:33:50;10.80;99.90
17728;DHT22;8984;49.268;12.302;2023-03-14T04:36:26;10.80;99.90
17728;DHT22;8984;49.268;12.302;2023-03-14T04:38:58;10.80;99.90
17728;DHT22;8984;49.268;12.302;2023-03-14T04:41:27;10.70;99.90
17728;DHT22;8984;49.268;12.302;2023-03-14T04:44:05;10.70;99.90
17728;DHT22;8984;49.268;12.302;2023-03-14T04:46:48;10.80;99.90
17728;DHT22;8984;49.268;12.302;2023-03-14T04:49:19;10.70;99.90
17728;DHT22;8984;49.268;12.302;2023-03-14T04:52:06;10.70;99.90
17728;DHT22;8984;49.268;12.302;2023-03-14T04:54:47;10.70;99.90
17728;DHT22;8984;49.268;12.302;2023-03-14T04:57:28;10.70;99.90
17728;DHT22;8984;49.268;12.302;2023-03-14T05:00:12;10.70;99.90
17728;DHT22;8984;49.268;12.302;2023-03-14T05:02:49;10.70;99.90
17728;DHT22;8984;49.268;12.302;2023-03-14T05:05:37;10.70;99.90
17728;DHT22;8984;49.268;12.302;2023-03-14T05:08:11;10.70;99.90
17728;DHT22;8984;49.268;12.302;2023-03-14T05:10:39;10.70;99.90
17728;DHT22;8984;49.268;12.302;2023-03-14T05:13:10;10.60;99.90
17728;DHT22;8984;49.268;12.302;2023-03-14T05:15:43;10.60;99.90
17728;DHT22;8984;49.268;12.302;2023-03-14T05:18:12;10.60;99.90
17728;DHT22;8984;49.268;12.302;2023-03-14T05:20:49;10.60;99.90
17728;DHT22;8984;49.268;12.302;2023-03-14T05:23:19;10.70;99.90
17728;DHT22;8984;49.268;12.302;2023-03-14T05:25:50;10.60;99.90
17728;DHT22;8984;49.268;12.302;2023-03-14T05:28:19;10.70;99.90
17728;DHT22;8984;49.268;12.302;2023-03-14T05:30:48;10.60;99.90
17728;DHT22;8984;49.268;12.302;2023-03-14T05:33:23;10.60;99.90
17728;DHT22;8984;49.268;12.302;2023-03-14T05:35:50;10.60;99.90
17728;DHT22;8984;49.268;12.302;2023-03-14T05:38:23;10.70;99.90
17728;DHT22;8984;49.268;12.302;2023-03-14T05:40:51;10.60;99.90
17728;DHT22;8984;49.268;12.302;2023-03-14T05:43:37;10.60;99.90
17728;DHT22;8984;49.268;12.302;2023-03-14T05:46:15;10.70;99.90
17728;DHT22;8984;49.268;12.302;2023-03-14T05:48:45;10.60;99.90
17728;DHT22;8984;49.268;12.302;2023-03-14T05:51:14;10.60;99.90
17728;DHT22;8984;49.268;12.302;2023-03-14T05:53:51;10.70;99.90
17728;DHT22;8984;49.268;12.302;2023-03-14T05:56:27;10.60;99.90
17728;DHT22;8984;49.268;12.302;2023-03-14T05:59:02;10.60;99.90
17728;DHT22;8984;49.268;12.302;2023-03-14T06:01:44;10.50;99.90
17728;DHT22;8984;49.268;12.302;2023-03-14T06:04:15;10.60;99.90
17728;DHT22;8984;49.268;12.302;2023-03-14T06:06:46;10.70;99.90
17728;DHT22;8984;49.268;12.302;2023-03-14T06:09:22;10.70;99.90
17728;DHT22;8984;49.268;12.302;2023-03-14T06:11:50;10.70;99.90
17728;DHT22;8984;49.268;12.302;2023-03-14T06:14:18;10.80;99.90
17728;DHT22;8984;49.268;12.302;2023-03-14T06:16:46;10.70;99.90
17728;DHT22;8984;49.268;12.302;2023-03-14T06:19:30;10.80;99.90
17728;DHT22;8984;49.268;12.302;2023-03-14T06:22:03;10.80;99.90
17728;DHT22;8984;49.268;12.302;2023-03-14T06:24:35;10.80;99.90
17728;DHT22;8984;49.268;12.302;2023-03-14T06:27:04;10.70;99.90
17728;DHT22;8984;49.268;12.302;2023-03-14T06:29:32;10.70;99.90
17728;DHT22;8984;49.268;12.302;2023-03-14T06:32:07;10.70;99.90
17728;DHT22;8984;49.268;12.302;2023-03-14T06:34:40;10.70;99.90
17728;DHT22;8984;49.268;12.302;2023-03-14T06:37:17;10.80;99.90
17728;DHT22;8984;49.268;12.302;2023-03-14T06:40:04;10.80;99.90
17728;DHT22;8984;49.268;12.302;2023-03-14T06:42:37;10.70;99.90
17728;DHT22;8984;49.268;12.302;2023-03-14T06:45:06;10.80;99.90
17728;DHT22;8984;49.268;12.302;2023-03-14T06:47:35;10.80;99.90
17728;DHT22;8984;49.268;12.302;2023-03-14T06:50:14;10.70;99.90
17728;DHT22;8984;49.268;12.302;2023-03-14T06:52:50;10.80;99.90
17728;DHT22;8984;49.268;12.302;2023-03-14T06:55:20;10.80;99.90
17728;DHT22;8984;49.268;12.302;2023-03-14T06:57:57;10.80;99.90
17728;DHT22;8984;49.268;12.302;2023-03-14T07:00:31;10.90;99.90
17728;DHT22;8984;49.268;12.302;2023-03-14T07:03:05;11.00;99.90
17728;DHT22;8984;49.268;12.302;2023-03-14T07:05:35;10.90;99.90
17728;DHT22;8984;49.268;12.302;2023-03-14T07:08:05;11.00;99.90
17728;DHT22;8984;49.268;12.302;2023-03-14T07:10:41;10.90;99.90
17728;DHT22;8984;49.268;12.302;2023-03-14T07:13:11;11.10;99.90
17728;DHT22;8984;49.268;12.302;2023-03-14T07:15:39;11.00;99.90
17728;DHT22;8984;49.268;12.302;2023-03-14T07:18:08;11.10;99.90
17728;DHT22;8984;49.268;12.302;2023-03-14T07:20:36;11.00;99.90
17728;DHT22;8984;49.268;12.302;2023-03-14T07:23:07;11.00;99.90
17728;DHT22;8984;49.268;12.302;2023-03-14T07:25:58;11.00;99.90
17728;DHT22;8984;49.268;12.302;2023-03-14T07:28:31;11.00;99.90
17728;DHT22;8984;49.268;12.302;2023-03-14T07:30:58;11.00;99.90
17728;DHT22;8984;49.268;12.302;2023-03-14T07:33:26;11.00;99.90
17728;DHT22;8984;49.268;12.302;2023-03-14T07:36:00;11.10;99.90
17728;DHT22;8984;49.268;12.302;2023-03-14T07:38:31;11.20;99.90
17728;DHT22;8984;49.268;12.302;2023-03-14T07:41:03;11.20;99.90
17728;DHT22;8984;49.268;12.302;2023-03-14T07:43:45;11.10;99.90
17728;DHT22;8984;49.268;12.302;2023-03-14T07:46:16;11.20;99.90
17728;DHT22;8984;49.268;12.302;2023-03-14T07:48:45;11.20;99.90
17728;DHT22;8984;49.268;12.302;2023-03-14T07:51:16;11.30;99.90
17728;DHT22;8984;49.268;12.302;2023-03-14T07:53:44;11.30;99.90
17728;DHT22;8984;49.268;12.302;2023-03-14T07:56:17;11.30;99.90
17728;DHT22;8984;49.268;12.302;2023-03-14T07:58:44;11.40;99.90
17728;DHT22;8984;49.268;12.302;2023-03-14T08:01:13;11.30;99.90
17728;DHT22;8984;49.268;12.302;2023-03-14T08:03:44;11.40;99.90
17728;DHT22;8984;49.268;12.302;2023-03-14T08:06:15;11.40;99.90
17728;DHT22;8984;49.268;12.302;2023-03-14T08:08:47;11.40;99.90
17728;DHT22;8984;49.268;12.302;2023-03-14T08:11:17;11.30;99.90
17728;DHT22;8984;49.268;12.302;2023-03-14T08:16:45;11.40;99.90
17728;DHT22;8984;49.268;12.302;2023-03-14T08:19:13;11.50;99.90
17728;DHT22;8984;49.268;12.302;2023-03-14T08:21:56;11.50;99.90
17728;DHT22;8984;49.268;12.302;2023-03-14T08:24:29;11.60;99.90
17728;DHT22;8984;49.268;12.302;2023-03-14T08:27:04;11.50;99.90
17728;DHT22;8984;49.268;12.302;2023-03-14T08:29:33;11.50;99.90
17728;DHT22;8984;49.268;12.302;2023-03-14T08:32:01;11.50;99.90
17728;DHT22;8984;49.268;12.302;2023-03-14T08:34:30;11.60;99.90
17728;DHT22;8984;49.268;12.302;2023-03-14T08:36:58;11.70;99.90
17728;DHT22;8984;49.268;12.302;2023-03-14T08:39:28;11.70;99.90
17728;DHT22;8984;49.268;12.302;2023-03-14T08:42:11;11.50;99.90
17728;DHT22;8984;49.268;12.302;2023-03-14T08:44:39;11.70;99.90
17728;DHT22;8984;49.268;12.302;2023-03-14T08:47:16;11.70;99.90
17728;DHT22;8984;49.268;12.302;2023-03-14T08:49:45;11.70;99.90
17728;DHT22;8984;49.268;12.302;2023-03-14T08:52:16;11.70;99.90
17728;DHT22;8984;49.268;12.302;2023-03-14T08:54:49;11.70;99.90
17728;DHT22;8984;49.268;12.302;2023-03-14T08:57:26;11.80;99.90
17728;DHT22;8984;49.268;12.302;2023-03-14T08:59:58;11.90;99.90
17728;DHT22;8984;49.268;12.302;2023-03-14T09:02:27;12.00;99.90
17728;DHT22;8984;49.268;12.302;2023-03-14T09:04:55;11.90;99.90
17728;DHT22;8984;49.268;12.302;2023-03-14T09:07:32;12.10;99.90
17728;DHT22;8984;49.268;12.302;2023-03-14T09:10:29;12.10;99.90
17728;DHT22;8984;49.268;12.302;2023-03-14T09:13:20;12.40;99.90
17728;DHT22;8984;49.268;12.302;2023-03-14T09:15:55;12.60;99.90
17728;DHT22;8984;49.268;12.302;2023-03-14T09:18:25;12.80;99.90
17728;DHT22;8984;49.268;12.302;2023-03-14T09:21:03;12.80;99.90
17728;DHT22;8984;49.268;12.302;2023-03-14T09:23:31;12.80;99.90
17728;DHT22;8984;49.268;12.302;2023-03-14T09:25:59;12.90;99.90
17728;DHT22;8984;49.268;12.302;2023-03-14T09:28:35;13.00;99.90
17728;DHT22;8984;49.268;12.302;2023-03-14T09:31:06;13.00;99.90
17728;DHT22;8984;49.268;12.302;2023-03-14T09:33:36;13.10;99.90
17728;DHT22;8984;49.268;12.302;2023-03-14T09:36:24;12.90;99.90
17728;DHT22;8984;49.268;12.302;2023-03-14T09:38:58;13.00;99.90
17728;DHT22;8984;49.268;12.302;2023-03-14T09:41:28;13.00;99.90
17728;DHT22;8984;49.268;12.302;2023-03-14T09:44:04;13.00;99.90
17728;DHT22;8984;49.268;12.302;2023-03-14T09:46:37;13.00;99.90
17728;DHT22;8984;49.268;12.302;2023-03-14T09:49:11;13.10;99.90
17728;DHT22;8984;49.268;12.302;2023-03-14T09:51:43;13.20;99.90
17728;DHT22;8984;49.268;12.302;2023-03-14T09:54:23;13.10;99.90
17728;DHT22;8984;49.268;12.302;2023-03-14T09:56:52;13.30;99.90
17728;DHT22;8984;49.268;12.302;2023-03-14T09:59:29;13.40;99.90
17728;DHT22;8984;49.268;12.302;2023-03-14T10:02:04;13.60;99.90
17728;DHT22;8984;49.268;12.302;2023-03-14T10:04:46;13.70;99.90
17728;DHT22;8984;49.268;12.302;2023-03-14T10:07:19;13.70;99.90
17728;DHT22;8984;49.268;12.302;2023-03-14T10:09:50;13.80;99.90
17728;DHT22;8984;49.268;12.302;2023-03-14T10:12:19;13.90;99.90
17728;DHT22;8984;49.268;12.302;2023-03-14T10:14:50;13.80;99.90
17728;DHT22;8984;49.268;12.302;2023-03-14T10:17:22;13.80;99.90
17728;DHT22;8984;49.268;12.302;2023-03-14T10:19:55;13.80;99.90
17728;DHT22;8984;49.268;12.302;2023-03-14T10:22:29;13.80;99.90
17728;DHT22;8984;49.268;12.302;2023-03-14T10:25:03;13.80;99.90
17728;DHT22;8984;49.268;12.302;2023-03-14T10:27:34;13.80;99.90
17728;DHT22;8984;49.268;12.302;2023-03-14T10:30:29;13.90;99.90
17728;DHT22;8984;49.268;12.302;2023-03-14T10:32:59;14.00;99.90
17728;DHT22;8984;49.268;12.302;2023-03-14T10:35:40;14.10;99.90
17728;DHT22;8984;49.268;12.302;2023-03-14T10:38:16;14.00;99.90
17728;DHT22;8984;49.268;12.302;2023-03-14T10:40:48;14.10;99.90
17728;DHT22;8984;49.268;12.302;2023-03-14T10:43:19;14.30;99.90
17728;DHT22;8984;49.268;12.302;2023-03-14T10:45:56;14.40;99.90
17728;DHT22;8984;49.268;12.302;2023-03-14T10:48:31;14.60;99.90
17728;DHT22;8984;49.268;12.302;2023-03-14T10:51:06;14.70;99.90
17728;DHT22;8984;49.268;12.302;2023-03-14T10:53:43;14.60;99.90
17728;DHT22;8984;49.268;12.302;2023-03-14T10:56:18;14.60;99.90
17728;DHT22;8984;49.268;12.302;2023-03-14T10:58:57;14.70;99.90
17728;DHT22;8984;49.268;12.302;2023-03-14T11:01:50;14.70;99.90
17728;DHT22;8984;49.268;12.302;2023-03-14T11:04:50;14.80;99.90
17728;DHT22;8984;49.268;12.302;2023-03-14T11:07:27;14.90;99.90
17728;DHT22;8984;49.268;12.302;2023-03-14T11:10:03;14.80;99.90
17728;DHT22;8984;49.268;12.302;2023-03-14T11:12:46;14.50;99.90
17728;DHT22;8984;49.268;12.302;2023-03-14T11:15:21;14.60;99.90
17728;DHT22;8984;49.268;12.302;2023-03-14T11:18:37;14.50;99.90
17728;DHT22;8984;49.268;12.302;2023-03-14T11:21:12;14.60;99.90
17728;DHT22;8984;49.268;12.302;2023-03-14T11:23:44;14.50;99.90
17728;DHT22;8984;49.268;12.302;2023-03-14T11:26:22;14.60;99.90
17728;DHT22;8984;49.268;12.302;2023-03-14T11:28:57;14.50;99.90
17728;DHT22;8984;49.268;12.302;2023-03-14T11:31:26;14.50;99.90
17728;DHT22;8984;49.268;12.302;2023-03-14T11:34:00;14.20;99.90
17728;DHT22;8984;49.268;12.302;2023-03-14T11:36:32;14.40;99.90
17728;DHT22;8984;49.268;12.302;2023-03-14T11:39:00;14.40;99.90
17728;DHT22;8984;49.268;12.302;2023-03-14T11:41:31;14.30;99.90
17728;DHT22;8984;49.268;12.302;2023-03-14T11:44:03;14.30;99.90
17728;DHT22;8984;49.268;12.302;2023-03-14T11:46:34;14.20;99.90
17728;DHT22;8984;49.268;12.302;2023-03-14T11:49:08;14.20;99.90
17728;DHT22;8984;49.268;12.302;2023-03-14T11:51:39;14.20;99.90
17728;DHT22;8984;49.268;12.302;2023-03-14T11:54:18;14.40;99.90
17728;DHT22;8984;49.268;12.302;2023-03-14T11:56:51;14.40;99.90
17728;DHT22;8984;49.268;12.302;2023-03-14T11:59:23;14.40;99.90
17728;DHT22;8984;49.268;12.302;2023-03-14T12:01:57;14.40;99.90
17728;DHT22;8984;49.268;12.302;2023-03-14T12:04:43;14.30;99.90
17728;DHT22;8984;49.268;12.302;2023-03-14T12:07:18;14.50;99.90
17728;DHT22;8984;49.268;12.302;2023-03-14T12:09:48;14.40;99.90
17728;DHT22;8984;49.268;12.302;2023-03-14T12:12:18;14.40;99.90
17728;DHT22;8984;49.268;12.302;2023-03-14T12:14:52;14.40;99.90
17728;DHT22;8984;49.268;12.302;2023-03-14T12:17:21;14.40;99.90
17728;DHT22;8984;49.268;12.302;2023-03-14T12:20:01;14.60;99.90
17728;DHT22;8984;49.268;12.302;2023-03-14T12:22:33;14.80;99.90
17728;DHT22;8984;49.268;12.302;2023-03-14T12:25:05;14.80;99.90
17728;DHT22;8984;49.268;12.302;2023-03-14T12:27:45;15.10;99.90
17728;DHT22;8984;49.268;12.302;2023-03-14T12:30:23;15.40;99.90
17728;DHT22;8984;49.268;12.302;2023-03-14T12:33:12;15.50;99.90
17728;DHT22;8984;49.268;12.302;2023-03-14T12:35:48;15.50;99.90
17728;DHT22;8984;49.268;12.302;2023-03-14T12:38:17;15.40;99.90
17728;DHT22;8984;49.268;12.302;2023-03-14T12:40:54;15.30;99.90
17728;DHT22;8984;49.268;12.302;2023-03-14T12:43:27;15.20;99.90
17728;DHT22;8984;49.268;12.302;2023-03-14T12:46:19;15.00;99.90
17728;DHT22;8984;49.268;12.302;2023-03-14T12:48:47;14.90;99.90
17728;DHT22;8984;49.268;12.302;2023-03-14T12:51:17;14.90;99.90
17728;DHT22;8984;49.268;12.302;2023-03-14T12:53:59;14.70;99.90
17728;DHT22;8984;49.268;12.302;2023-03-14T12:56:50;14.60;99.90
17728;DHT22;8984;49.268;12.302;2023-03-14T12:59:31;14.30;99.90
17728;DHT22;8984;49.268;12.302;2023-03-14T13:02:19;14.20;99.90
17728;DHT22;8984;49.268;12.302;2023-03-14T13:04:48;14.10;99.90
17728;DHT22;8984;49.268;12.302;2023-03-14T13:07:32;14.10;99.90
17728;DHT22;8984;49.268;12.302;2023-03-14T13:12:49;14.10;99.90
17728;DHT22;8984;49.268;12.302;2023-03-14T13:15:21;14.00;99.90
17728;DHT22;8984;49.268;12.302;2023-03-14T13:17:49;14.10;99.90
17728;DHT22;8984;49.268;12.302;2023-03-14T13:20:23;13.80;99.90
17728;DHT22;8984;49.268;12.302;2023-03-14T13:22:52;13.90;99.90
17728;DHT22;8984;49.268;12.302;2023-03-14T13:25:19;13.90;99.90
17728;DHT22;8984;49.268;12.302;2023-03-14T13:27:51;13.90;99.90
17728;DHT22;8984;49.268;12.302;2023-03-14T13:32:49;14.10;99.90
17728;DHT22;8984;49.268;12.302;2023-03-14T13:35:18;14.30;99.90
17728;DHT22;8984;49.268;12.302;2023-03-14T13:37:45;14.40;99.90
17728;DHT22;8984;49.268;12.302;2023-03-14T13:40:25;14.70;99.90
17728;DHT22;8984;49.268;12.302;2023-03-14T13:43:04;14.90;99.90
17728;DHT22;8984;49.268;12.302;2023-03-14T13:45:44;14.70;99.90
17728;DHT22;8984;49.268;12.302;2023-03-14T13:48:12;14.80;99.90
17728;DHT22;8984;49.268;12.302;2023-03-14T13:50:45;14.90;99.90
17728;DHT22;8984;49.268;12.302;2023-03-14T13:53:12;15.10;99.90
17728;DHT22;8984;49.268;12.302;2023-03-14T13:55:40;15.30;99.90
17728;DHT22;8984;49.268;12.302;2023-03-14T13:58:12;15.30;99.90
17728;DHT22;8984;49.268;12.302;2023-03-14T14:00:40;15.10;99.90
17728;DHT22;8984;49.268;12.302;2023-03-14T14:03:10;15.20;99.90
17728;DHT22;8984;49.268;12.302;2023-03-14T14:05:37;15.10;99.90
17728;DHT22;8984;49.268;12.302;2023-03-14T14:08:10;15.20;99.90
17728;DHT22;8984;49.268;12.302;2023-03-14T14:10:37;15.00;99.90
17728;DHT22;8984;49.268;12.302;2023-03-14T14:13:08;14.70;99.90
17728;DHT22;8984;49.268;12.302;2023-03-14T14:15:41;14.60;99.90
17728;DHT22;8984;49.268;12.302;2023-03-14T14:18:10;14.50;99.90
17728;DHT22;8984;49.268;12.302;2023-03-14T14:20:41;14.40;99.90
17728;DHT22;8984;49.268;12.302;2023-03-14T14:23:11;13.80;99.90
17728;DHT22;8984;49.268;12.302;2023-03-14T14:25:39;13.90;99.90
17728;DHT22;8984;49.268;12.302;2023-03-14T14:28:26;13.70;99.90
17728;DHT22;8984;49.268;12.302;2023-03-14T14:31:02;13.60;99.90
17728;DHT22;8984;49.268;12.302;2023-03-14T14:33:29;13.40;99.90
17728;DHT22;8984;49.268;12.302;2023-03-14T14:36:04;13.20;99.90
17728;DHT22;8984;49.268;12.302;2023-03-14T14:38:31;13.00;99.90
17728;DHT22;8984;49.268;12.302;2023-03-14T14:41:01;12.90;99.90
17728;DHT22;8984;49.268;12.302;2023-03-14T14:43:35;12.80;99.90
17728;DHT22;8984;49.268;12.302;2023-03-14T14:46:06;12.80;99.90
17728;DHT22;8984;49.268;12.302;2023-03-14T14:48:37;12.90;99.90
17728;DHT22;8984;49.268;12.302;2023-03-14T14:51:06;12.80;99.90
17728;DHT22;8984;49.268;12.302;2023-03-14T14:53:36;12.70;99.90
17728;DHT22;8984;49.268;12.302;2023-03-14T14:56:06;12.60;99.90
17728;DHT22;8984;49.268;12.302;2023-03-14T14:58:36;12.50;99.90
17728;DHT22;8984;49.268;12.302;2023-03-14T15:01:10;12.40;99.90
17728;DHT22;8984;49.268;12.302;2023-03-14T15:03:38;12.30;99.90
17728;DHT22;8984;49.268;12.302;2023-03-14T15:06:05;12.30;99.90
17728;DHT22;8984;49.268;12.302;2023-03-14T15:08:32;12.10;99.90
17728;DHT22;8984;49.268;12.302;2023-03-14T15:10:58;12.10;99.90
17728;DHT22;8984;49.268;12.302;2023-03-14T15:13:25;12.10;99.90
17728;DHT22;8984;49.268;12.302;2023-03-14T15:15:53;12.10;99.90
17728;DHT22;8984;49.268;12.302;2023-03-14T15:18:23;12.00;99.90
17728;DHT22;8984;49.268;12.302;2023-03-14T15:20:50;11.80;99.90
17728;DHT22;8984;49.268;12.302;2023-03-14T15:23:18;11.90;99.90
17728;DHT22;8984;49.268;12.302;2023-03-14T15:25:45;11.90;99.90
17728;DHT22;8984;49.268;12.302;2023-03-14T15:28:17;12.00;99.90
17728;DHT22;8984;49.268;12.302;2023-03-14T15:30:46;11.90;99.90
17728;DHT22;8984;49.268;12.302;2023-03-14T15:33:15;11.90;99.90
17728;DHT22;8984;49.268;12.302;2023-03-14T15:35:42;11.80;99.90
17728;DHT22;8984;49.268;12.302;2023-03-14T15:38:10;11.80;99.90
17728;DHT22;8984;49.268;12.302;2023-03-14T15:40:38;11.70;99.90
17728;DHT22;8984;49.268;12.302;2023-03-14T15:43:05;11.50;99.90
17728;DHT22;8984;49.268;12.302;2023-03-14T15:45:32;11.50;99.90
17728;DHT22;8984;49.268;12.302;2023-03-14T15:47:59;11.30;99.90
17728;DHT22;8984;49.268;12.302;2023-03-14T15:50:27;11.10;99.90
17728;DHT22;8984;49.268;12.302;2023-03-14T15:52:54;11.00;99.90
17728;DHT22;8984;49.268;12.302;2023-03-14T15:55:22;11.00;99.90
17728;DHT22;8984;49.268;12.302;2023-03-14T15:57:50;10.70;99.90
17728;DHT22;8984;49.268;12.302;2023-03-14T16:00:19;10.70;99.90
17728;DHT22;8984;49.268;12.302;2023-03-14T16:02:47;10.70;99.90
17728;DHT22;8984;49.268;12.302;2023-03-14T16:05:14;10.60;99.90
17728;DHT22;8984;49.268;12.302;2023-03-14T16:07:42;10.50;99.90
17728;DHT22;8984;49.268;12.302;2023-03-14T16:10:11;10.30;99.90
17728;DHT22;8984;49.268;12.302;2023-03-14T16:12:38;10.20;99.90
17728;DHT22;8984;49.268;12.302;2023-03-14T16:15:06;10.00;99.90
17728;DHT22;8984;49.268;12.302;2023-03-14T16:17:33;9.90;99.90
17728;DHT22;8984;49.268;12.302;2023-03-14T16:20:00;9.80;99.90
17728;DHT22;8984;49.268;12.302;2023-03-14T16:22:28;9.60;99.90